Mirante Da Serra, Brazil
Current Conditions -  °F | °C
As of 6:00 PM on Thursday 23 Oct 2014 (Local Time) from SBPV Reporting Station
Scattered Clouds Scattered Clouds  
Wind Chill: 77°   Ceiling: Unl
Heat Index: 78°   Visibility: 6mi
Dew Point: 72°   Wind: 0mph
Humidity: 83%   Direction: NA
Pressure: 29.74"   Gusts: NA
Location:  11°S, 62.77°W
Report Text: SBPV 232200Z 00000KT 9999 FEW020 SCT100 25/22 Q1007
Loading
Personal Weather Stations






























Interactive Weather Map
Tropical Storm Tracking
New forecast layout! Learn more

10-Day Weather Forecast

Advertisements
Track Severe Weather on mobile